Channing, Michigan
Current Conditions -  °F | °C
As of 6:54 AM on Friday 28 Nov 2014 (Local Time) from KIMT Reporting Station
Overcast Overcast  
Wind Chill:   Ceiling: 8000
Heat Index:   Visibility: 10mi
Dew Point:   Wind: 3mph
Humidity: 80%   Direction: 140°SE
Pressure: 30.16"   Gusts: NA
Location:  46.14°N, 88.09°W
Report Text: KIMT 281254Z AUTO 14003KT 10SM SCT065 BKN080 OVC110 M15/M18 A3016 RMK AO2 SLP246 T11501178
Loading
Personal Weather Stations






























Interactive Weather Map New forecast layout! Learn more

10-Day Weather Forecast

Advertisements
Track Severe Weather on mobile